DFW weather

Dallas Fort Worth International Airport
Dallas-Fort Worth, Texas, United States

Public forecast

Using degrees Fahrenheit for public forecast. Weather courtesy of forecast.io.

METAR (pilot weather report)

Retrieved 2019/04/21 11:53 UTC (14 minutes ago):

KDFW 211153Z 17010KT 10SM FEW030 15/11 A2991 RMK AO2 SLP121 T01500111 10183 20150 53005

TAF (pilot weather forecast)

Retrieved 2019/04/21 12:33 UTC (0 seconds ago):

TAF KDFW 211131Z 2112/2218 17012KT P6SM SKC FM211700 18018G28KT P6SM FEW250 FM220100 18016KT P6SM BKN250 FM221000 18018KT P6SM BKN022